Weather at Cain Field

Public forecast

Using degrees Fahrenheit for public forecast. Weather courtesy of forecast.io.

Closest aviation weather report (METAR) to Cain Field

Closest report is Roben Hood Airport, 7.4 nm (13.7 km) N. Retrieved 2020/09/24 20:35 UTC (0 seconds ago):

KRQB 242035Z AUTO 25009KT 10SM SCT037 SCT043 24/14 A2993 RMK AO2 T02370141

Closest aviation forecast (TAF) to Cain Field

Closest forecast is Muskegon County Airport, 41.5 nm (76.9 km) SW. Retrieved 2020/09/24 18:24 UTC (2 hours ago):

TAF KMKG 241722Z 2418/2518 21012G20KT P6SM FEW050 BKN170 FM250100 20007KT P6SM SCT150 BKN250 FM251200 19012KT P6SM BKN250